sensor_id;sensor_type;location;lat;lon;timestamp;temperature;humidity
21582;DHT22;10952;50.836;4.348;2024-03-23T00:55:18;9.20;99.90
21582;DHT22;10952;50.836;4.348;2024-03-23T00:57:52;9.30;99.90
21582;DHT22;10952;50.836;4.348;2024-03-23T01:00:21;9.30;99.90
21582;DHT22;10952;50.836;4.348;2024-03-23T01:03:04;9.30;99.90
21582;DHT22;10952;50.836;4.348;2024-03-23T01:05:30;9.30;99.90
21582;DHT22;10952;50.836;4.348;2024-03-23T01:07:57;9.20;99.90
21582;DHT22;10952;50.836;4.348;2024-03-23T01:10:25;9.20;99.90
21582;DHT22;10952;50.836;4.348;2024-03-23T01:12:55;9.20;99.90
21582;DHT22;10952;50.836;4.348;2024-03-23T01:15:23;9.10;99.90
21582;DHT22;10952;50.836;4.348;2024-03-23T01:17:49;9.10;99.90
21582;DHT22;10952;50.836;4.348;2024-03-23T01:30:09;8.90;99.90
21582;DHT22;10952;50.836;4.348;2024-03-23T01:32:58;9.00;99.90
21582;DHT22;10952;50.836;4.348;2024-03-23T01:35:40;9.20;99.90
21582;DHT22;10952;50.836;4.348;2024-03-23T01:41:28;9.10;99.90
21582;DHT22;10952;50.836;4.348;2024-03-23T01:44:05;9.20;99.90
21582;DHT22;10952;50.836;4.348;2024-03-23T01:46:35;9.20;99.90
21582;DHT22;10952;50.836;4.348;2024-03-23T01:52:25;9.20;99.90
21582;DHT22;10952;50.836;4.348;2024-03-23T01:55:12;9.30;99.90
21582;DHT22;10952;50.836;4.348;2024-03-23T01:57:42;9.30;99.90
21582;DHT22;10952;50.836;4.348;2024-03-23T02:03:30;9.30;99.90
21582;DHT22;10952;50.836;4.348;2024-03-23T02:09:19;9.30;99.90
21582;DHT22;10952;50.836;4.348;2024-03-23T02:18:24;9.40;99.90
21582;DHT22;10952;50.836;4.348;2024-03-23T02:20:50;9.30;99.90
21582;DHT22;10952;50.836;4.348;2024-03-23T02:23:17;9.30;99.90
21582;DHT22;10952;50.836;4.348;2024-03-23T02:25:45;9.30;99.90
21582;DHT22;10952;50.836;4.348;2024-03-23T02:28:11;9.30;99.90
21582;DHT22;10952;50.836;4.348;2024-03-23T02:30:37;9.30;99.90
21582;DHT22;10952;50.836;4.348;2024-03-23T02:33:03;9.30;99.90
21582;DHT22;10952;50.836;4.348;2024-03-23T02:35:29;9.20;99.90
21582;DHT22;10952;50.836;4.348;2024-03-23T02:37:55;9.10;99.90
21582;DHT22;10952;50.836;4.348;2024-03-23T02:40:23;9.20;99.90
21582;DHT22;10952;50.836;4.348;2024-03-23T02:42:48;9.30;99.90
21582;DHT22;10952;50.836;4.348;2024-03-23T02:45:14;9.30;99.90
21582;DHT22;10952;50.836;4.348;2024-03-23T02:47:40;9.40;99.90
21582;DHT22;10952;50.836;4.348;2024-03-23T02:50:06;9.30;99.90
21582;DHT22;10952;50.836;4.348;2024-03-23T02:52:32;9.20;99.90
21582;DHT22;10952;50.836;4.348;2024-03-23T02:54:57;9.30;99.90
21582;DHT22;10952;50.836;4.348;2024-03-23T02:57:23;9.30;99.90
21582;DHT22;10952;50.836;4.348;2024-03-23T02:59:49;9.30;99.90
21582;DHT22;10952;50.836;4.348;2024-03-23T03:02:15;9.30;99.90
21582;DHT22;10952;50.836;4.348;2024-03-23T03:04:41;9.30;99.90
21582;DHT22;10952;50.836;4.348;2024-03-23T03:07:07;9.30;99.90
21582;DHT22;10952;50.836;4.348;2024-03-23T03:09:32;9.30;99.90
21582;DHT22;10952;50.836;4.348;2024-03-23T03:12:03;9.30;99.90
21582;DHT22;10952;50.836;4.348;2024-03-23T03:14:29;9.20;99.90
21582;DHT22;10952;50.836;4.348;2024-03-23T03:16:55;9.30;99.90
21582;DHT22;10952;50.836;4.348;2024-03-23T03:19:20;9.20;99.90
21582;DHT22;10952;50.836;4.348;2024-03-23T03:21:46;9.30;99.90
21582;DHT22;10952;50.836;4.348;2024-03-23T03:24:13;9.20;99.90
21582;DHT22;10952;50.836;4.348;2024-03-23T03:26:39;9.20;99.90
21582;DHT22;10952;50.836;4.348;2024-03-23T03:29:04;9.10;99.90
21582;DHT22;10952;50.836;4.348;2024-03-23T03:31:30;9.00;99.90
21582;DHT22;10952;50.836;4.348;2024-03-23T03:33:56;9.00;99.90
21582;DHT22;10952;50.836;4.348;2024-03-23T03:36:21;9.00;99.90
21582;DHT22;10952;50.836;4.348;2024-03-23T03:38:47;9.00;99.90
21582;DHT22;10952;50.836;4.348;2024-03-23T03:41:13;8.90;99.90
21582;DHT22;10952;50.836;4.348;2024-03-23T03:43:38;8.90;99.90
21582;DHT22;10952;50.836;4.348;2024-03-23T03:46:04;8.90;99.90
21582;DHT22;10952;50.836;4.348;2024-03-23T03:48:30;9.00;99.90
21582;DHT22;10952;50.836;4.348;2024-03-23T03:50:55;8.90;99.90
21582;DHT22;10952;50.836;4.348;2024-03-23T03:53:21;8.90;99.90
21582;DHT22;10952;50.836;4.348;2024-03-23T03:55:47;8.90;99.90
21582;DHT22;10952;50.836;4.348;2024-03-23T03:58:12;8.90;99.90
21582;DHT22;10952;50.836;4.348;2024-03-23T04:00:38;8.80;99.90
21582;DHT22;10952;50.836;4.348;2024-03-23T04:03:04;8.90;99.90
21582;DHT22;10952;50.836;4.348;2024-03-23T04:05:30;9.00;99.90
21582;DHT22;10952;50.836;4.348;2024-03-23T04:07:55;9.00;99.90
21582;DHT22;10952;50.836;4.348;2024-03-23T04:10:21;9.00;99.90
21582;DHT22;10952;50.836;4.348;2024-03-23T04:12:47;9.00;99.90
21582;DHT22;10952;50.836;4.348;2024-03-23T04:15:13;9.00;99.90
21582;DHT22;10952;50.836;4.348;2024-03-23T04:17:39;8.90;99.90
21582;DHT22;10952;50.836;4.348;2024-03-23T04:20:08;8.90;99.90
21582;DHT22;10952;50.836;4.348;2024-03-23T04:22:37;8.80;99.90
21582;DHT22;10952;50.836;4.348;2024-03-23T04:25:03;8.90;99.90
21582;DHT22;10952;50.836;4.348;2024-03-23T04:27:35;9.00;99.90
21582;DHT22;10952;50.836;4.348;2024-03-23T04:30:01;9.00;99.90
21582;DHT22;10952;50.836;4.348;2024-03-23T04:32:28;9.10;99.90
21582;DHT22;10952;50.836;4.348;2024-03-23T04:34:54;9.00;99.90
21582;DHT22;10952;50.836;4.348;2024-03-23T04:37:20;9.00;99.90
21582;DHT22;10952;50.836;4.348;2024-03-23T04:39:46;8.90;99.90
21582;DHT22;10952;50.836;4.348;2024-03-23T04:42:15;9.00;99.90
21582;DHT22;10952;50.836;4.348;2024-03-23T04:44:41;9.00;99.90
21582;DHT22;10952;50.836;4.348;2024-03-23T04:47:07;8.90;99.90
21582;DHT22;10952;50.836;4.348;2024-03-23T04:49:33;8.80;99.90
21582;DHT22;10952;50.836;4.348;2024-03-23T04:51:59;8.80;99.90
21582;DHT22;10952;50.836;4.348;2024-03-23T04:54:24;8.90;99.90
21582;DHT22;10952;50.836;4.348;2024-03-23T04:56:50;8.80;99.90
21582;DHT22;10952;50.836;4.348;2024-03-23T04:59:16;8.70;99.90
21582;DHT22;10952;50.836;4.348;2024-03-23T05:01:41;8.70;99.90
21582;DHT22;10952;50.836;4.348;2024-03-23T05:04:08;8.70;99.90
21582;DHT22;10952;50.836;4.348;2024-03-23T05:06:34;8.60;99.90
21582;DHT22;10952;50.836;4.348;2024-03-23T05:09:00;8.60;99.90
21582;DHT22;10952;50.836;4.348;2024-03-23T05:11:31;8.50;99.90
21582;DHT22;10952;50.836;4.348;2024-03-23T05:13:57;8.40;99.90
21582;DHT22;10952;50.836;4.348;2024-03-23T05:16:23;8.40;99.90
21582;DHT22;10952;50.836;4.348;2024-03-23T05:18:49;8.50;99.90
21582;DHT22;10952;50.836;4.348;2024-03-23T05:21:14;8.60;99.90
21582;DHT22;10952;50.836;4.348;2024-03-23T05:23:40;8.60;99.90
21582;DHT22;10952;50.836;4.348;2024-03-23T05:26:06;8.60;99.90
21582;DHT22;10952;50.836;4.348;2024-03-23T05:28:31;8.70;99.90
21582;DHT22;10952;50.836;4.348;2024-03-23T05:30:57;8.60;99.90
21582;DHT22;10952;50.836;4.348;2024-03-23T05:33:23;8.60;99.90
21582;DHT22;10952;50.836;4.348;2024-03-23T05:35:57;8.60;99.90
21582;DHT22;10952;50.836;4.348;2024-03-23T05:38:22;8.50;99.90
21582;DHT22;10952;50.836;4.348;2024-03-23T05:40:58;8.50;99.90
21582;DHT22;10952;50.836;4.348;2024-03-23T05:43:24;8.50;99.90
21582;DHT22;10952;50.836;4.348;2024-03-23T05:45:54;8.50;99.90
21582;DHT22;10952;50.836;4.348;2024-03-23T05:48:20;8.40;99.90
21582;DHT22;10952;50.836;4.348;2024-03-23T05:50:46;8.30;99.90
21582;DHT22;10952;50.836;4.348;2024-03-23T05:53:12;8.30;99.90
21582;DHT22;10952;50.836;4.348;2024-03-23T05:55:38;8.40;99.90
21582;DHT22;10952;50.836;4.348;2024-03-23T05:58:04;8.50;99.90
21582;DHT22;10952;50.836;4.348;2024-03-23T06:00:30;8.40;99.90
21582;DHT22;10952;50.836;4.348;2024-03-23T06:02:56;8.40;99.90
21582;DHT22;10952;50.836;4.348;2024-03-23T06:05:21;8.40;99.90
21582;DHT22;10952;50.836;4.348;2024-03-23T06:07:47;8.40;99.90
21582;DHT22;10952;50.836;4.348;2024-03-23T06:10:13;8.30;99.90
21582;DHT22;10952;50.836;4.348;2024-03-23T06:12:38;8.20;99.90
21582;DHT22;10952;50.836;4.348;2024-03-23T06:15:04;8.20;99.90
21582;DHT22;10952;50.836;4.348;2024-03-23T06:17:30;8.30;99.90
21582;DHT22;10952;50.836;4.348;2024-03-23T06:19:56;8.40;99.90
21582;DHT22;10952;50.836;4.348;2024-03-23T06:22:21;8.40;99.90
21582;DHT22;10952;50.836;4.348;2024-03-23T06:24:47;8.40;99.90
21582;DHT22;10952;50.836;4.348;2024-03-23T06:27:13;8.40;99.90
21582;DHT22;10952;50.836;4.348;2024-03-23T06:29:39;8.40;99.90
21582;DHT22;10952;50.836;4.348;2024-03-23T06:32:04;8.40;99.90
21582;DHT22;10952;50.836;4.348;2024-03-23T06:34:30;8.40;99.90
21582;DHT22;10952;50.836;4.348;2024-03-23T06:36:55;8.50;99.90
21582;DHT22;10952;50.836;4.348;2024-03-23T06:39:21;8.60;99.90
21582;DHT22;10952;50.836;4.348;2024-03-23T06:41:53;8.60;99.90
21582;DHT22;10952;50.836;4.348;2024-03-23T06:44:19;8.70;99.90
21582;DHT22;10952;50.836;4.348;2024-03-23T06:46:46;8.70;99.90
21582;DHT22;10952;50.836;4.348;2024-03-23T06:49:12;8.70;99.90
21582;DHT22;10952;50.836;4.348;2024-03-23T06:51:37;8.70;99.90
21582;DHT22;10952;50.836;4.348;2024-03-23T06:54:05;8.70;99.90
21582;DHT22;10952;50.836;4.348;2024-03-23T06:56:30;8.70;99.90
21582;DHT22;10952;50.836;4.348;2024-03-23T06:58:57;8.80;99.90
21582;DHT22;10952;50.836;4.348;2024-03-23T07:01:23;8.80;99.90
21582;DHT22;10952;50.836;4.348;2024-03-23T07:03:48;8.80;99.90
21582;DHT22;10952;50.836;4.348;2024-03-23T07:06:14;8.80;99.90
21582;DHT22;10952;50.836;4.348;2024-03-23T07:08:39;8.70;99.90
21582;DHT22;10952;50.836;4.348;2024-03-23T07:11:05;8.40;99.90
21582;DHT22;10952;50.836;4.348;2024-03-23T07:13:31;7.90;99.90
21582;DHT22;10952;50.836;4.348;2024-03-23T07:15:57;7.60;99.90
21582;DHT22;10952;50.836;4.348;2024-03-23T07:18:24;7.40;99.90
21582;DHT22;10952;50.836;4.348;2024-03-23T07:20:55;7.40;99.90
21582;DHT22;10952;50.836;4.348;2024-03-23T07:23:25;7.50;99.90
21582;DHT22;10952;50.836;4.348;2024-03-23T07:26:17;7.40;99.90
21582;DHT22;10952;50.836;4.348;2024-03-23T07:28:43;7.60;99.90
21582;DHT22;10952;50.836;4.348;2024-03-23T07:31:11;7.60;99.90
21582;DHT22;10952;50.836;4.348;2024-03-23T07:33:41;7.70;99.90
21582;DHT22;10952;50.836;4.348;2024-03-23T07:36:07;7.80;99.90
21582;DHT22;10952;50.836;4.348;2024-03-23T07:38:33;7.90;99.90
21582;DHT22;10952;50.836;4.348;2024-03-23T07:41:05;8.00;99.90
21582;DHT22;10952;50.836;4.348;2024-03-23T07:43:31;8.10;99.90
21582;DHT22;10952;50.836;4.348;2024-03-23T07:45:56;8.20;99.90
21582;DHT22;10952;50.836;4.348;2024-03-23T07:48:22;8.30;99.90
21582;DHT22;10952;50.836;4.348;2024-03-23T07:51:04;8.40;99.90
21582;DHT22;10952;50.836;4.348;2024-03-23T07:53:30;8.50;99.90
21582;DHT22;10952;50.836;4.348;2024-03-23T07:55:57;8.50;99.90
21582;DHT22;10952;50.836;4.348;2024-03-23T07:58:23;8.60;99.90
21582;DHT22;10952;50.836;4.348;2024-03-23T08:00:49;8.60;99.90
21582;DHT22;10952;50.836;4.348;2024-03-23T08:03:15;8.70;99.90
21582;DHT22;10952;50.836;4.348;2024-03-23T08:05:40;8.80;99.90
21582;DHT22;10952;50.836;4.348;2024-03-23T08:08:06;8.80;99.90
21582;DHT22;10952;50.836;4.348;2024-03-23T08:10:32;8.70;99.90
21582;DHT22;10952;50.836;4.348;2024-03-23T08:12:57;8.80;99.90
21582;DHT22;10952;50.836;4.348;2024-03-23T08:15:23;8.90;99.90
21582;DHT22;10952;50.836;4.348;2024-03-23T08:17:50;8.80;99.90
21582;DHT22;10952;50.836;4.348;2024-03-23T08:20:15;8.70;99.90
21582;DHT22;10952;50.836;4.348;2024-03-23T08:22:41;8.80;99.90
21582;DHT22;10952;50.836;4.348;2024-03-23T08:25:06;8.70;99.90
21582;DHT22;10952;50.836;4.348;2024-03-23T08:27:32;8.90;99.90
21582;DHT22;10952;50.836;4.348;2024-03-23T08:29:58;9.10;99.90
21582;DHT22;10952;50.836;4.348;2024-03-23T08:32:24;9.20;99.90
21582;DHT22;10952;50.836;4.348;2024-03-23T08:34:50;9.30;99.90
21582;DHT22;10952;50.836;4.348;2024-03-23T08:37:15;9.30;99.90
21582;DHT22;10952;50.836;4.348;2024-03-23T08:39:43;9.40;99.90
21582;DHT22;10952;50.836;4.348;2024-03-23T08:42:09;9.40;99.90
21582;DHT22;10952;50.836;4.348;2024-03-23T10:37:56;10.00;99.90
21582;DHT22;10952;50.836;4.348;2024-03-23T10:40:23;10.10;99.90
21582;DHT22;10952;50.836;4.348;2024-03-23T10:42:49;10.20;99.90
21582;DHT22;10952;50.836;4.348;2024-03-23T10:45:15;10.30;99.90
21582;DHT22;10952;50.836;4.348;2024-03-23T10:47:42;10.40;99.90
21582;DHT22;10952;50.836;4.348;2024-03-23T10:50:08;10.10;99.90
21582;DHT22;10952;50.836;4.348;2024-03-23T10:52:36;10.00;99.90
21582;DHT22;10952;50.836;4.348;2024-03-23T10:55:05;10.20;99.90
21582;DHT22;10952;50.836;4.348;2024-03-23T10:57:37;10.30;99.90
21582;DHT22;10952;50.836;4.348;2024-03-23T11:00:06;10.60;99.90
21582;DHT22;10952;50.836;4.348;2024-03-23T11:02:33;10.80;99.90
21582;DHT22;10952;50.836;4.348;2024-03-23T11:04:58;11.00;99.90
21582;DHT22;10952;50.836;4.348;2024-03-23T11:09:50;11.20;99.90
21582;DHT22;10952;50.836;4.348;2024-03-23T11:14:51;12.70;99.90
21582;DHT22;10952;50.836;4.348;2024-03-23T11:17:21;13.90;99.90
21582;DHT22;10952;50.836;4.348;2024-03-23T11:19:58;14.30;99.90
21582;DHT22;10952;50.836;4.348;2024-03-23T11:22:44;14.80;99.90
21582;DHT22;10952;50.836;4.348;2024-03-23T11:25:13;14.80;99.90
21582;DHT22;10952;50.836;4.348;2024-03-23T11:27:41;14.90;99.90
21582;DHT22;10952;50.836;4.348;2024-03-23T11:32:44;16.50;99.90
21582;DHT22;10952;50.836;4.348;2024-03-23T11:35:09;16.10;99.90
21582;DHT22;10952;50.836;4.348;2024-03-23T11:37:37;16.00;99.90
21582;DHT22;10952;50.836;4.348;2024-03-23T11:40:20;15.30;99.90
21582;DHT22;10952;50.836;4.348;2024-03-23T11:42:46;14.40;99.90
21582;DHT22;10952;50.836;4.348;2024-03-23T11:45:13;14.40;99.90
21582;DHT22;10952;50.836;4.348;2024-03-23T11:47:42;13.70;99.90
21582;DHT22;10952;50.836;4.348;2024-03-23T11:50:14;13.90;99.90
21582;DHT22;10952;50.836;4.348;2024-03-23T11:52:47;14.30;99.90
21582;DHT22;10952;50.836;4.348;2024-03-23T11:55:13;14.00;99.90
21582;DHT22;10952;50.836;4.348;2024-03-23T11:57:42;13.80;99.90
21582;DHT22;10952;50.836;4.348;2024-03-23T12:00:23;13.20;99.90
21582;DHT22;10952;50.836;4.348;2024-03-23T12:02:49;13.00;99.90
21582;DHT22;10952;50.836;4.348;2024-03-23T12:05:17;13.40;99.90
21582;DHT22;10952;50.836;4.348;2024-03-23T12:07:44;13.20;99.90
21582;DHT22;10952;50.836;4.348;2024-03-23T12:10:13;12.90;99.90
21582;DHT22;10952;50.836;4.348;2024-03-23T12:12:41;12.60;99.90
21582;DHT22;10952;50.836;4.348;2024-03-23T12:15:08;12.40;99.90
21582;DHT22;10952;50.836;4.348;2024-03-23T12:17:35;12.10;99.90
21582;DHT22;10952;50.836;4.348;2024-03-23T12:20:02;11.80;99.90
21582;DHT22;10952;50.836;4.348;2024-03-23T12:22:28;11.30;99.90
21582;DHT22;10952;50.836;4.348;2024-03-23T12:24:56;10.80;99.90
21582;DHT22;10952;50.836;4.348;2024-03-23T12:27:23;10.50;99.90
21582;DHT22;10952;50.836;4.348;2024-03-23T12:29:49;10.20;99.90
21582;DHT22;10952;50.836;4.348;2024-03-23T12:32:16;10.10;99.90
21582;DHT22;10952;50.836;4.348;2024-03-23T12:34:42;10.00;99.90
21582;DHT22;10952;50.836;4.348;2024-03-23T12:37:08;10.20;99.90
21582;DHT22;10952;50.836;4.348;2024-03-23T12:39:38;11.10;99.90
21582;DHT22;10952;50.836;4.348;2024-03-23T12:42:04;12.10;99.90
21582;DHT22;10952;50.836;4.348;2024-03-23T12:44:30;12.90;99.90
21582;DHT22;10952;50.836;4.348;2024-03-23T12:46:56;13.60;99.90
21582;DHT22;10952;50.836;4.348;2024-03-23T12:49:25;14.10;99.90
21582;DHT22;10952;50.836;4.348;2024-03-23T12:51:55;14.40;99.90
21582;DHT22;10952;50.836;4.348;2024-03-23T12:54:21;14.50;99.90
21582;DHT22;10952;50.836;4.348;2024-03-23T12:56:48;14.20;99.90
21582;DHT22;10952;50.836;4.348;2024-03-23T12:59:15;13.50;99.90
21582;DHT22;10952;50.836;4.348;2024-03-23T13:01:42;13.40;99.90
21582;DHT22;10952;50.836;4.348;2024-03-23T13:04:09;13.60;99.90
21582;DHT22;10952;50.836;4.348;2024-03-23T13:06:38;13.80;99.90
21582;DHT22;10952;50.836;4.348;2024-03-23T13:09:04;14.00;99.90
21582;DHT22;10952;50.836;4.348;2024-03-23T13:11:30;13.70;99.90
21582;DHT22;10952;50.836;4.348;2024-03-23T13:13:56;13.40;99.90
21582;DHT22;10952;50.836;4.348;2024-03-23T13:16:22;13.20;99.90
21582;DHT22;10952;50.836;4.348;2024-03-23T13:18:50;13.10;99.90
21582;DHT22;10952;50.836;4.348;2024-03-23T13:21:16;12.90;99.90
21582;DHT22;10952;50.836;4.348;2024-03-23T13:23:42;12.40;99.90
21582;DHT22;10952;50.836;4.348;2024-03-23T13:26:11;12.00;99.90
21582;DHT22;10952;50.836;4.348;2024-03-23T13:28:37;11.90;99.90
21582;DHT22;10952;50.836;4.348;2024-03-23T13:31:04;12.10;99.90
21582;DHT22;10952;50.836;4.348;2024-03-23T13:33:32;12.10;99.90
21582;DHT22;10952;50.836;4.348;2024-03-23T13:35:59;12.20;99.90
21582;DHT22;10952;50.836;4.348;2024-03-23T13:38:25;12.20;99.90
21582;DHT22;10952;50.836;4.348;2024-03-23T13:40:59;12.40;99.90
21582;DHT22;10952;50.836;4.348;2024-03-23T13:43:32;12.50;99.90
21582;DHT22;10952;50.836;4.348;2024-03-23T13:46:00;12.70;99.90
21582;DHT22;10952;50.836;4.348;2024-03-23T13:48:27;12.50;99.90
21582;DHT22;10952;50.836;4.348;2024-03-23T13:51:02;12.50;99.90
21582;DHT22;10952;50.836;4.348;2024-03-23T13:53:32;12.40;99.90
21582;DHT22;10952;50.836;4.348;2024-03-23T13:55:58;12.30;99.90
21582;DHT22;10952;50.836;4.348;2024-03-23T13:58:24;12.10;99.90
21582;DHT22;10952;50.836;4.348;2024-03-23T14:00:51;11.80;99.90
21582;DHT22;10952;50.836;4.348;2024-03-23T14:03:17;11.70;99.90
21582;DHT22;10952;50.836;4.348;2024-03-23T14:05:44;11.70;99.90
21582;DHT22;10952;50.836;4.348;2024-03-23T14:08:14;11.80;99.90
21582;DHT22;10952;50.836;4.348;2024-03-23T14:10:41;11.70;99.90
21582;DHT22;10952;50.836;4.348;2024-03-23T14:13:08;11.80;99.90
21582;DHT22;10952;50.836;4.348;2024-03-23T14:15:35;12.00;99.90
21582;DHT22;10952;50.836;4.348;2024-03-23T14:18:02;12.00;99.90
21582;DHT22;10952;50.836;4.348;2024-03-23T14:20:31;12.00;99.90
21582;DHT22;10952;50.836;4.348;2024-03-23T14:23:00;12.10;99.90
21582;DHT22;10952;50.836;4.348;2024-03-23T14:25:27;11.80;99.90
21582;DHT22;10952;50.836;4.348;2024-03-23T14:27:54;11.60;99.90
21582;DHT22;10952;50.836;4.348;2024-03-23T14:30:20;11.60;99.90
21582;DHT22;10952;50.836;4.348;2024-03-23T14:32:46;11.80;99.90
21582;DHT22;10952;50.836;4.348;2024-03-23T14:35:11;11.90;99.90
21582;DHT22;10952;50.836;4.348;2024-03-23T14:37:40;11.80;99.90
21582;DHT22;10952;50.836;4.348;2024-03-23T14:40:09;11.60;99.90
21582;DHT22;10952;50.836;4.348;2024-03-23T14:42:38;11.40;99.90
21582;DHT22;10952;50.836;4.348;2024-03-23T14:45:08;11.40;99.90
21582;DHT22;10952;50.836;4.348;2024-03-23T14:47:35;11.30;99.90
21582;DHT22;10952;50.836;4.348;2024-03-23T14:50:00;11.40;99.90
21582;DHT22;10952;50.836;4.348;2024-03-23T14:52:26;11.20;99.90
21582;DHT22;10952;50.836;4.348;2024-03-23T14:54:52;11.30;99.90
21582;DHT22;10952;50.836;4.348;2024-03-23T14:57:19;11.40;99.90
21582;DHT22;10952;50.836;4.348;2024-03-23T14:59:45;11.60;99.90
21582;DHT22;10952;50.836;4.348;2024-03-23T15:02:13;11.80;99.90
21582;DHT22;10952;50.836;4.348;2024-03-23T15:04:39;11.70;99.90
21582;DHT22;10952;50.836;4.348;2024-03-23T15:07:07;11.70;99.90
21582;DHT22;10952;50.836;4.348;2024-03-23T15:09:33;11.80;99.90
21582;DHT22;10952;50.836;4.348;2024-03-23T15:12:00;11.90;99.90
21582;DHT22;10952;50.836;4.348;2024-03-23T15:14:27;11.60;99.90
21582;DHT22;10952;50.836;4.348;2024-03-23T15:16:56;11.70;99.90
21582;DHT22;10952;50.836;4.348;2024-03-23T15:19:22;11.80;99.90
21582;DHT22;10952;50.836;4.348;2024-03-23T15:21:48;11.90;99.90
21582;DHT22;10952;50.836;4.348;2024-03-23T15:24:15;12.10;99.90
21582;DHT22;10952;50.836;4.348;2024-03-23T15:26:41;12.30;99.90
21582;DHT22;10952;50.836;4.348;2024-03-23T15:29:07;12.30;99.90
21582;DHT22;10952;50.836;4.348;2024-03-23T15:31:37;12.40;99.90
21582;DHT22;10952;50.836;4.348;2024-03-23T15:34:03;12.40;99.90
21582;DHT22;10952;50.836;4.348;2024-03-23T15:36:32;12.20;99.90
21582;DHT22;10952;50.836;4.348;2024-03-23T15:38:58;11.90;99.90
21582;DHT22;10952;50.836;4.348;2024-03-23T15:41:24;11.80;99.90
21582;DHT22;10952;50.836;4.348;2024-03-23T15:43:51;11.80;99.90
21582;DHT22;10952;50.836;4.348;2024-03-23T15:46:23;11.50;99.90
21582;DHT22;10952;50.836;4.348;2024-03-23T15:48:53;11.40;99.90
21582;DHT22;10952;50.836;4.348;2024-03-23T15:51:20;11.40;99.90
21582;DHT22;10952;50.836;4.348;2024-03-23T15:53:46;11.60;99.90
21582;DHT22;10952;50.836;4.348;2024-03-23T15:56:12;11.70;99.90
21582;DHT22;10952;50.836;4.348;2024-03-23T15:58:39;11.70;99.90
21582;DHT22;10952;50.836;4.348;2024-03-23T16:01:08;11.80;99.90
21582;DHT22;10952;50.836;4.348;2024-03-23T16:03:40;11.80;99.90
21582;DHT22;10952;50.836;4.348;2024-03-23T16:06:12;11.80;99.90
21582;DHT22;10952;50.836;4.348;2024-03-23T16:08:50;12.00;99.90
21582;DHT22;10952;50.836;4.348;2024-03-23T16:11:15;12.10;99.90
21582;DHT22;10952;50.836;4.348;2024-03-23T16:13:44;12.10;99.90
21582;DHT22;10952;50.836;4.348;2024-03-23T16:16:09;12.20;99.90
21582;DHT22;10952;50.836;4.348;2024-03-23T16:18:38;12.30;99.90
21582;DHT22;10952;50.836;4.348;2024-03-23T16:21:07;12.20;99.90
21582;DHT22;10952;50.836;4.348;2024-03-23T16:23:35;11.80;99.90
21582;DHT22;10952;50.836;4.348;2024-03-23T16:26:03;11.70;99.90
21582;DHT22;10952;50.836;4.348;2024-03-23T16:28:33;11.70;99.90
21582;DHT22;10952;50.836;4.348;2024-03-23T16:31:04;11.60;99.90
21582;DHT22;10952;50.836;4.348;2024-03-23T16:33:31;11.60;99.90
21582;DHT22;10952;50.836;4.348;2024-03-23T16:36:03;11.50;99.90
21582;DHT22;10952;50.836;4.348;2024-03-23T16:38:36;11.40;99.90
21582;DHT22;10952;50.836;4.348;2024-03-23T16:41:05;11.40;99.90
21582;DHT22;10952;50.836;4.348;2024-03-23T16:43:32;11.40;99.90
21582;DHT22;10952;50.836;4.348;2024-03-23T16:46:01;11.40;99.90
21582;DHT22;10952;50.836;4.348;2024-03-23T16:48:29;11.40;99.90
21582;DHT22;10952;50.836;4.348;2024-03-23T16:51:00;11.40;99.90
21582;DHT22;10952;50.836;4.348;2024-03-23T16:53:26;11.40;99.90
21582;DHT22;10952;50.836;4.348;2024-03-23T16:58:31;11.40;99.90
21582;DHT22;10952;50.836;4.348;2024-03-23T17:01:06;11.50;99.90
21582;DHT22;10952;50.836;4.348;2024-03-23T17:03:38;11.40;99.90
21582;DHT22;10952;50.836;4.348;2024-03-23T17:06:09;11.40;99.90
21582;DHT22;10952;50.836;4.348;2024-03-23T17:08:37;11.30;99.90
21582;DHT22;10952;50.836;4.348;2024-03-23T17:11:03;11.10;99.90
21582;DHT22;10952;50.836;4.348;2024-03-23T17:13:33;11.10;99.90
21582;DHT22;10952;50.836;4.348;2024-03-23T17:16:03;11.20;99.90
21582;DHT22;10952;50.836;4.348;2024-03-23T17:18:30;11.10;99.90
21582;DHT22;10952;50.836;4.348;2024-03-23T17:20:56;11.00;99.90
21582;DHT22;10952;50.836;4.348;2024-03-23T17:23:29;11.00;99.90
21582;DHT22;10952;50.836;4.348;2024-03-23T17:25:55;11.00;99.90
21582;DHT22;10952;50.836;4.348;2024-03-23T17:28:23;11.00;99.90
21582;DHT22;10952;50.836;4.348;2024-03-23T17:30:49;11.10;99.90
21582;DHT22;10952;50.836;4.348;2024-03-23T17:33:15;11.00;99.90
21582;DHT22;10952;50.836;4.348;2024-03-23T17:35:44;11.00;99.90
21582;DHT22;10952;50.836;4.348;2024-03-23T17:38:13;11.10;99.90
21582;DHT22;10952;50.836;4.348;2024-03-23T17:40:39;11.10;99.90
21582;DHT22;10952;50.836;4.348;2024-03-23T17:43:07;11.10;99.90
21582;DHT22;10952;50.836;4.348;2024-03-23T17:45:35;10.30;99.90
21582;DHT22;10952;50.836;4.348;2024-03-23T17:48:02;9.80;99.90
21582;DHT22;10952;50.836;4.348;2024-03-23T17:50:29;9.40;99.90
21582;DHT22;10952;50.836;4.348;2024-03-23T17:52:57;9.00;99.90
21582;DHT22;10952;50.836;4.348;2024-03-23T17:55:22;8.90;99.90
21582;DHT22;10952;50.836;4.348;2024-03-23T17:57:48;8.60;99.90
21582;DHT22;10952;50.836;4.348;2024-03-23T18:00:14;8.30;99.90
21582;DHT22;10952;50.836;4.348;2024-03-23T18:02:41;8.30;99.90
21582;DHT22;10952;50.836;4.348;2024-03-23T18:05:11;8.20;99.90
21582;DHT22;10952;50.836;4.348;2024-03-23T18:07:37;8.20;99.90
21582;DHT22;10952;50.836;4.348;2024-03-23T18:10:03;8.00;99.90
21582;DHT22;10952;50.836;4.348;2024-03-23T18:12:29;8.10;99.90
21582;DHT22;10952;50.836;4.348;2024-03-23T18:14:55;8.00;99.90
21582;DHT22;10952;50.836;4.348;2024-03-23T18:17:22;7.90;99.90
21582;DHT22;10952;50.836;4.348;2024-03-23T18:19:48;7.90;99.90
21582;DHT22;10952;50.836;4.348;2024-03-23T18:22:14;8.00;99.90
21582;DHT22;10952;50.836;4.348;2024-03-23T18:24:39;8.20;99.90
21582;DHT22;10952;50.836;4.348;2024-03-23T18:27:05;8.30;99.90
21582;DHT22;10952;50.836;4.348;2024-03-23T18:29:35;8.10;99.90
21582;DHT22;10952;50.836;4.348;2024-03-23T18:32:03;8.10;99.90
21582;DHT22;10952;50.836;4.348;2024-03-23T18:34:29;8.20;99.90
21582;DHT22;10952;50.836;4.348;2024-03-23T18:36:55;8.40;99.90
21582;DHT22;10952;50.836;4.348;2024-03-23T18:39:20;8.40;99.90
21582;DHT22;10952;50.836;4.348;2024-03-23T18:41:47;8.40;99.90
21582;DHT22;10952;50.836;4.348;2024-03-23T18:44:13;8.30;99.90
21582;DHT22;10952;50.836;4.348;2024-03-23T18:46:39;7.90;99.90
21582;DHT22;10952;50.836;4.348;2024-03-23T18:49:07;7.70;99.90
21582;DHT22;10952;50.836;4.348;2024-03-23T18:51:32;7.60;99.90
21582;DHT22;10952;50.836;4.348;2024-03-23T18:53:59;7.30;99.90
21582;DHT22;10952;50.836;4.348;2024-03-23T18:56:27;7.30;99.90
21582;DHT22;10952;50.836;4.348;2024-03-23T18:58:53;7.30;99.90
21582;DHT22;10952;50.836;4.348;2024-03-23T19:01:20;7.30;99.90
21582;DHT22;10952;50.836;4.348;2024-03-23T19:03:46;7.30;99.90
21582;DHT22;10952;50.836;4.348;2024-03-23T19:06:16;7.40;99.90
21582;DHT22;10952;50.836;4.348;2024-03-23T19:08:42;7.40;99.90